sensor_id;sensor_type;location;lat;lon;timestamp;pressure;altitude;pressure_sealevel;temperature;humidity
54270;BME280;40181;51.560;13.000;2023-05-24T00:01:30;101033.97;;;10.51;74.39
54270;BME280;40181;51.560;13.000;2023-05-24T00:03:59;101029.00;;;10.65;73.73
54270;BME280;40181;51.560;13.000;2023-05-24T00:06:28;101031.19;;;10.43;74.59
54270;BME280;40181;51.560;13.000;2023-05-24T00:09:01;101032.50;;;10.62;73.12
54270;BME280;40181;51.560;13.000;2023-05-24T00:11:31;101040.75;;;10.41;73.86
54270;BME280;40181;51.560;13.000;2023-05-24T00:14:00;101027.84;;;10.50;73.03
54270;BME280;40181;51.560;13.000;2023-05-24T00:16:29;101021.47;;;10.41;73.68
54270;BME280;40181;51.560;13.000;2023-05-24T00:18:59;101027.88;;;10.52;73.25
54270;BME280;40181;51.560;13.000;2023-05-24T00:21:28;101030.06;;;10.72;72.27
54270;BME280;40181;51.560;13.000;2023-05-24T00:24:03;101025.91;;;10.42;72.88
54270;BME280;40181;51.560;13.000;2023-05-24T00:26:35;101041.91;;;10.14;73.00
54270;BME280;40181;51.560;13.000;2023-05-24T00:29:04;101040.81;;;10.04;72.86
54270;BME280;40181;51.560;13.000;2023-05-24T00:31:33;101037.31;;;10.05;73.32
54270;BME280;40181;51.560;13.000;2023-05-24T00:34:03;101035.81;;;10.15;72.81
54270;BME280;40181;51.560;13.000;2023-05-24T00:36:32;101041.22;;;10.23;72.81
54270;BME280;40181;51.560;13.000;2023-05-24T00:39:04;101041.56;;;9.99;73.86
54270;BME280;40181;51.560;13.000;2023-05-24T00:41:33;101040.84;;;10.06;73.27
54270;BME280;40181;51.560;13.000;2023-05-24T00:44:03;101038.66;;;9.88;73.44
54270;BME280;40181;51.560;13.000;2023-05-24T00:46:32;101050.81;;;9.84;73.64
54270;BME280;40181;51.560;13.000;2023-05-24T00:49:02;101051.94;;;9.94;73.36
54270;BME280;40181;51.560;13.000;2023-05-24T00:51:32;101039.50;;;9.87;73.64
54270;BME280;40181;51.560;13.000;2023-05-24T00:54:05;101042.28;;;9.93;73.63
54270;BME280;40181;51.560;13.000;2023-05-24T00:56:34;101045.63;;;9.86;74.11
54270;BME280;40181;51.560;13.000;2023-05-24T00:59:03;101051.38;;;10.07;73.75
54270;BME280;40181;51.560;13.000;2023-05-24T01:01:32;101043.13;;;9.55;75.60
54270;BME280;40181;51.560;13.000;2023-05-24T01:04:02;101052.19;;;9.68;75.08
54270;BME280;40181;51.560;13.000;2023-05-24T01:06:37;101047.06;;;9.73;74.70
54270;BME280;40181;51.560;13.000;2023-05-24T01:09:19;101038.19;;;10.04;73.63
54270;BME280;40181;51.560;13.000;2023-05-24T01:12:01;101046.03;;;9.67;74.81
54270;BME280;40181;51.560;13.000;2023-05-24T01:14:46;101044.00;;;9.91;74.19
54270;BME280;40181;51.560;13.000;2023-05-24T01:17:26;101056.59;;;10.06;73.78
54270;BME280;40181;51.560;13.000;2023-05-24T01:20:01;101047.78;;;9.67;75.07
54270;BME280;40181;51.560;13.000;2023-05-24T01:26:00;101060.69;;;9.94;73.59
54270;BME280;40181;51.560;13.000;2023-05-24T01:28:38;101057.56;;;10.09;73.49
54270;BME280;40181;51.560;13.000;2023-05-24T01:31:07;101063.19;;;9.90;74.26
54270;BME280;40181;51.560;13.000;2023-05-24T01:33:40;101055.91;;;10.13;73.50
54270;BME280;40181;51.560;13.000;2023-05-24T01:36:09;101058.63;;;10.18;73.27
54270;BME280;40181;51.560;13.000;2023-05-24T01:38:39;101055.16;;;10.20;72.83
54270;BME280;40181;51.560;13.000;2023-05-24T01:41:17;101058.63;;;10.18;73.10
54270;BME280;40181;51.560;13.000;2023-05-24T01:43:59;101066.44;;;9.78;73.78
54270;BME280;40181;51.560;13.000;2023-05-24T01:46:36;101051.16;;;9.98;74.68
54270;BME280;40181;51.560;13.000;2023-05-24T01:49:12;101058.25;;;10.02;74.49
54270;BME280;40181;51.560;13.000;2023-05-24T01:51:50;101060.25;;;9.76;76.34
54270;BME280;40181;51.560;13.000;2023-05-24T01:54:24;101057.78;;;9.82;75.72
54270;BME280;40181;51.560;13.000;2023-05-24T01:56:56;101052.81;;;9.58;77.54
54270;BME280;40181;51.560;13.000;2023-05-24T01:59:30;101047.84;;;9.70;76.43
54270;BME280;40181;51.560;13.000;2023-05-24T02:02:00;101051.28;;;9.67;76.30
54270;BME280;40181;51.560;13.000;2023-05-24T02:04:30;101047.97;;;9.39;77.45
54270;BME280;40181;51.560;13.000;2023-05-24T02:06:59;101054.41;;;9.86;75.69
54270;BME280;40181;51.560;13.000;2023-05-24T02:09:28;101054.88;;;9.71;76.25
54270;BME280;40181;51.560;13.000;2023-05-24T02:11:57;101048.50;;;9.96;75.64
54270;BME280;40181;51.560;13.000;2023-05-24T02:14:29;101049.94;;;9.48;76.69
54270;BME280;40181;51.560;13.000;2023-05-24T02:16:58;101043.81;;;9.48;77.17
54270;BME280;40181;51.560;13.000;2023-05-24T02:19:27;101050.13;;;9.56;76.65
54270;BME280;40181;51.560;13.000;2023-05-24T02:21:58;101042.88;;;9.46;77.32
54270;BME280;40181;51.560;13.000;2023-05-24T02:24:28;101042.34;;;9.24;78.42
54270;BME280;40181;51.560;13.000;2023-05-24T02:26:57;101038.19;;;9.34;77.96
54270;BME280;40181;51.560;13.000;2023-05-24T02:29:29;101041.47;;;9.25;78.71
54270;BME280;40181;51.560;13.000;2023-05-24T02:31:58;101038.66;;;9.51;77.76
54270;BME280;40181;51.560;13.000;2023-05-24T02:34:27;101036.66;;;9.08;79.10
54270;BME280;40181;51.560;13.000;2023-05-24T02:36:56;101039.59;;;9.19;78.98
54270;BME280;40181;51.560;13.000;2023-05-24T02:39:26;101031.34;;;9.39;77.88
54270;BME280;40181;51.560;13.000;2023-05-24T02:41:55;101035.69;;;9.37;77.14
54270;BME280;40181;51.560;13.000;2023-05-24T02:44:24;101044.47;;;9.39;77.60
54270;BME280;40181;51.560;13.000;2023-05-24T02:46:56;101033.97;;;9.39;77.27
54270;BME280;40181;51.560;13.000;2023-05-24T02:49:25;101041.84;;;9.39;76.86
54270;BME280;40181;51.560;13.000;2023-05-24T02:51:54;101028.16;;;9.51;77.15
54270;BME280;40181;51.560;13.000;2023-05-24T02:54:23;101045.69;;;9.20;78.05
54270;BME280;40181;51.560;13.000;2023-05-24T02:56:53;101033.94;;;9.37;77.19
54270;BME280;40181;51.560;13.000;2023-05-24T02:59:22;101034.38;;;9.54;77.26
54270;BME280;40181;51.560;13.000;2023-05-24T03:01:51;101041.84;;;9.05;78.35
54270;BME280;40181;51.560;13.000;2023-05-24T03:04:23;101030.91;;;9.22;78.38
54270;BME280;40181;51.560;13.000;2023-05-24T03:06:52;101031.34;;;9.05;79.13
54270;BME280;40181;51.560;13.000;2023-05-24T03:09:21;101029.13;;;9.21;78.45
54270;BME280;40181;51.560;13.000;2023-05-24T03:11:50;101020.56;;;9.28;78.19
54270;BME280;40181;51.560;13.000;2023-05-24T03:14:19;101030.25;;;9.31;77.29
54270;BME280;40181;51.560;13.000;2023-05-24T03:16:49;101041.66;;;8.99;79.42
54270;BME280;40181;51.560;13.000;2023-05-24T03:19:18;101025.75;;;9.25;78.08
54270;BME280;40181;51.560;13.000;2023-05-24T03:21:50;101036.66;;;9.42;77.39
54270;BME280;40181;51.560;13.000;2023-05-24T03:24:19;101037.00;;;9.21;78.30
54270;BME280;40181;51.560;13.000;2023-05-24T03:26:48;101038.50;;;9.11;77.84
54270;BME280;40181;51.560;13.000;2023-05-24T03:29:17;101029.72;;;9.10;78.46
54270;BME280;40181;51.560;13.000;2023-05-24T03:31:46;101042.28;;;9.22;78.21
54270;BME280;40181;51.560;13.000;2023-05-24T03:34:15;101033.84;;;9.01;78.60
54270;BME280;40181;51.560;13.000;2023-05-24T03:36:44;101037.16;;;8.95;79.53
54270;BME280;40181;51.560;13.000;2023-05-24T03:39:16;101038.75;;;9.22;78.15
54270;BME280;40181;51.560;13.000;2023-05-24T03:41:45;101033.16;;;9.08;78.51
54270;BME280;40181;51.560;13.000;2023-05-24T03:44:14;101037.03;;;9.22;77.58
54270;BME280;40181;51.560;13.000;2023-05-24T03:46:43;101037.44;;;9.38;77.27
54270;BME280;40181;51.560;13.000;2023-05-24T03:49:12;101041.97;;;9.10;78.45
54270;BME280;40181;51.560;13.000;2023-05-24T03:51:41;101040.75;;;8.97;78.71
54270;BME280;40181;51.560;13.000;2023-05-24T03:54:10;101055.31;;;9.19;77.43
54270;BME280;40181;51.560;13.000;2023-05-24T03:56:42;101050.63;;;9.41;76.94
54270;BME280;40181;51.560;13.000;2023-05-24T03:59:11;101051.00;;;9.21;77.49
54270;BME280;40181;51.560;13.000;2023-05-24T04:01:40;101047.69;;;9.29;77.27
54270;BME280;40181;51.560;13.000;2023-05-24T04:04:09;101045.81;;;9.23;77.77
54270;BME280;40181;51.560;13.000;2023-05-24T04:06:39;101055.63;;;9.32;77.41
54270;BME280;40181;51.560;13.000;2023-05-24T04:09:07;101055.38;;;9.22;77.45
54270;BME280;40181;51.560;13.000;2023-05-24T04:11:37;101061.19;;;9.10;77.77
54270;BME280;40181;51.560;13.000;2023-05-24T04:14:08;101070.31;;;9.25;77.05
54270;BME280;40181;51.560;13.000;2023-05-24T04:16:37;101068.09;;;9.40;76.79
54270;BME280;40181;51.560;13.000;2023-05-24T04:19:09;101073.78;;;9.58;76.16
54270;BME280;40181;51.560;13.000;2023-05-24T04:21:38;101075.38;;;9.51;75.83
54270;BME280;40181;51.560;13.000;2023-05-24T04:24:08;101070.72;;;9.40;75.97
54270;BME280;40181;51.560;13.000;2023-05-24T04:26:37;101078.69;;;9.45;76.06
54270;BME280;40181;51.560;13.000;2023-05-24T04:29:08;101080.00;;;9.27;76.73
54270;BME280;40181;51.560;13.000;2023-05-24T04:31:39;101084.94;;;9.17;77.20
54270;BME280;40181;51.560;13.000;2023-05-24T04:34:08;101080.69;;;9.22;77.14
54270;BME280;40181;51.560;13.000;2023-05-24T04:36:38;101092.28;;;9.29;76.69
54270;BME280;40181;51.560;13.000;2023-05-24T04:39:08;101097.25;;;9.19;76.97
54270;BME280;40181;51.560;13.000;2023-05-24T04:41:38;101097.06;;;9.45;76.22
54270;BME280;40181;51.560;13.000;2023-05-24T04:44:09;101088.75;;;9.28;76.45
54270;BME280;40181;51.560;13.000;2023-05-24T04:46:38;101101.50;;;9.48;75.70
54270;BME280;40181;51.560;13.000;2023-05-24T04:49:07;101094.13;;;9.33;76.01
54270;BME280;40181;51.560;13.000;2023-05-24T04:51:37;101099.47;;;9.37;76.12
54270;BME280;40181;51.560;13.000;2023-05-24T04:54:06;101105.06;;;9.18;76.65
54270;BME280;40181;51.560;13.000;2023-05-24T04:56:36;101105.56;;;9.36;75.83
54270;BME280;40181;51.560;13.000;2023-05-24T04:59:08;101102.69;;;9.27;75.95
54270;BME280;40181;51.560;13.000;2023-05-24T05:01:38;101105.31;;;9.59;75.18
54270;BME280;40181;51.560;13.000;2023-05-24T05:04:07;101104.72;;;9.37;75.67
54270;BME280;40181;51.560;13.000;2023-05-24T05:06:36;101110.88;;;9.72;74.61
54270;BME280;40181;51.560;13.000;2023-05-24T05:09:07;101118.75;;;9.38;75.66
54270;BME280;40181;51.560;13.000;2023-05-24T05:11:38;101110.94;;;9.41;75.80
54270;BME280;40181;51.560;13.000;2023-05-24T05:14:10;101111.00;;;9.43;75.90
54270;BME280;40181;51.560;13.000;2023-05-24T05:16:39;101122.53;;;9.49;75.11
54270;BME280;40181;51.560;13.000;2023-05-24T05:19:10;101119.22;;;9.57;74.48
54270;BME280;40181;51.560;13.000;2023-05-24T05:21:40;101126.56;;;9.70;74.73
54270;BME280;40181;51.560;13.000;2023-05-24T05:24:09;101116.41;;;9.82;74.10
54270;BME280;40181;51.560;13.000;2023-05-24T05:26:38;101122.78;;;9.59;73.90
54270;BME280;40181;51.560;13.000;2023-05-24T05:29:10;101129.25;;;9.72;74.00
54270;BME280;40181;51.560;13.000;2023-05-24T05:31:39;101129.03;;;9.99;73.35
54270;BME280;40181;51.560;13.000;2023-05-24T05:34:08;101131.88;;;9.72;73.52
54270;BME280;40181;51.560;13.000;2023-05-24T05:36:37;101136.84;;;9.96;73.26
54270;BME280;40181;51.560;13.000;2023-05-24T05:39:07;101140.59;;;9.38;74.36
54270;BME280;40181;51.560;13.000;2023-05-24T05:41:37;101144.38;;;9.48;74.41
54270;BME280;40181;51.560;13.000;2023-05-24T05:44:11;101139.88;;;9.44;74.52
54270;BME280;40181;51.560;13.000;2023-05-24T05:46:40;101142.34;;;9.38;72.76
54270;BME280;40181;51.560;13.000;2023-05-24T05:49:10;101145.97;;;9.77;72.43
54270;BME280;40181;51.560;13.000;2023-05-24T05:51:40;101137.41;;;9.82;72.64
54270;BME280;40181;51.560;13.000;2023-05-24T05:54:09;101141.75;;;9.82;72.66
54270;BME280;40181;51.560;13.000;2023-05-24T05:56:43;101141.31;;;9.65;72.85
54270;BME280;40181;51.560;13.000;2023-05-24T05:59:15;101159.56;;;9.62;72.71
54270;BME280;40181;51.560;13.000;2023-05-24T06:01:44;101143.81;;;9.60;72.43
54270;BME280;40181;51.560;13.000;2023-05-24T06:04:14;101151.16;;;9.74;71.70
54270;BME280;40181;51.560;13.000;2023-05-24T06:06:43;101145.25;;;9.49;71.62
54270;BME280;40181;51.560;13.000;2023-05-24T06:09:14;101138.44;;;9.55;70.81
54270;BME280;40181;51.560;13.000;2023-05-24T06:11:43;101150.72;;;9.57;70.49
54270;BME280;40181;51.560;13.000;2023-05-24T06:14:14;101141.34;;;9.66;69.55
54270;BME280;40181;51.560;13.000;2023-05-24T06:16:46;101143.22;;;9.71;69.92
54270;BME280;40181;51.560;13.000;2023-05-24T06:19:16;101149.69;;;9.51;68.53
54270;BME280;40181;51.560;13.000;2023-05-24T06:21:46;101156.63;;;9.83;67.98
54270;BME280;40181;51.560;13.000;2023-05-24T06:24:16;101163.03;;;9.93;66.98
54270;BME280;40181;51.560;13.000;2023-05-24T06:26:47;101147.13;;;10.22;66.06
54270;BME280;40181;51.560;13.000;2023-05-24T06:29:19;101148.72;;;10.17;65.49
54270;BME280;40181;51.560;13.000;2023-05-24T06:31:49;101148.72;;;10.15;62.10
54270;BME280;40181;51.560;13.000;2023-05-24T06:34:19;101156.88;;;10.28;61.22
54270;BME280;40181;51.560;13.000;2023-05-24T06:36:48;101160.56;;;10.36;60.93
54270;BME280;40181;51.560;13.000;2023-05-24T06:39:18;101161.53;;;10.40;61.11
54270;BME280;40181;51.560;13.000;2023-05-24T06:41:49;101164.63;;;10.23;61.02
54270;BME280;40181;51.560;13.000;2023-05-24T06:44:21;101170.69;;;10.20;60.61
54270;BME280;40181;51.560;13.000;2023-05-24T06:46:56;101166.63;;;10.32;60.34
54270;BME280;40181;51.560;13.000;2023-05-24T06:49:25;101167.31;;;10.24;59.98
54270;BME280;40181;51.560;13.000;2023-05-24T06:51:54;101168.97;;;10.56;60.38
54270;BME280;40181;51.560;13.000;2023-05-24T06:54:23;101172.78;;;10.69;60.06
54270;BME280;40181;51.560;13.000;2023-05-24T06:56:52;101174.13;;;10.53;60.40
54270;BME280;40181;51.560;13.000;2023-05-24T06:59:24;101179.47;;;10.56;59.32
54270;BME280;40181;51.560;13.000;2023-05-24T07:01:53;101173.38;;;10.57;59.28
54270;BME280;40181;51.560;13.000;2023-05-24T07:04:24;101173.31;;;10.94;59.79
54270;BME280;40181;51.560;13.000;2023-05-24T07:06:53;101180.25;;;10.90;59.30
54270;BME280;40181;51.560;13.000;2023-05-24T07:09:22;101184.03;;;10.63;60.44
54270;BME280;40181;51.560;13.000;2023-05-24T07:11:51;101180.88;;;10.42;59.64
54270;BME280;40181;51.560;13.000;2023-05-24T07:14:20;101179.41;;;10.91;59.26
54270;BME280;40181;51.560;13.000;2023-05-24T07:16:52;101179.31;;;10.88;60.22
54270;BME280;40181;51.560;13.000;2023-05-24T07:19:23;101188.97;;;10.89;60.65
54270;BME280;40181;51.560;13.000;2023-05-24T07:21:54;101182.31;;;10.30;61.65
54270;BME280;40181;51.560;13.000;2023-05-24T07:24:24;101183.97;;;10.62;62.16
54270;BME280;40181;51.560;13.000;2023-05-24T07:26:53;101191.31;;;10.77;62.26
54270;BME280;40181;51.560;13.000;2023-05-24T07:29:26;101191.38;;;10.78;62.04
54270;BME280;40181;51.560;13.000;2023-05-24T07:31:56;101188.00;;;10.84;62.65
54270;BME280;40181;51.560;13.000;2023-05-24T07:34:26;101184.09;;;11.06;62.37
54270;BME280;40181;51.560;13.000;2023-05-24T07:36:55;101190.75;;;10.90;63.72
54270;BME280;40181;51.560;13.000;2023-05-24T07:39:25;101179.84;;;11.13;63.43
54270;BME280;40181;51.560;13.000;2023-05-24T07:41:54;101190.97;;;11.00;62.90
54270;BME280;40181;51.560;13.000;2023-05-24T07:44:25;101180.56;;;11.04;62.68
54270;BME280;40181;51.560;13.000;2023-05-24T07:46:55;101191.25;;;11.14;63.47
54270;BME280;40181;51.560;13.000;2023-05-24T07:49:26;101185.66;;;11.41;63.05
54270;BME280;40181;51.560;13.000;2023-05-24T07:51:55;101186.34;;;11.31;63.95
54270;BME280;40181;51.560;13.000;2023-05-24T07:54:25;101196.53;;;11.14;64.72
54270;BME280;40181;51.560;13.000;2023-05-24T07:56:54;101193.59;;;11.43;64.40
54270;BME280;40181;51.560;13.000;2023-05-24T07:59:26;101191.97;;;11.48;63.42
54270;BME280;40181;51.560;13.000;2023-05-24T08:01:55;101196.09;;;11.37;64.00
54270;BME280;40181;51.560;13.000;2023-05-24T08:04:29;101189.97;;;11.38;64.36
54270;BME280;40181;51.560;13.000;2023-05-24T08:06:59;101192.19;;;11.16;64.43
54270;BME280;40181;51.560;13.000;2023-05-24T08:09:30;101194.69;;;11.53;63.35
54270;BME280;40181;51.560;13.000;2023-05-24T08:12:00;101191.78;;;11.40;61.66
54270;BME280;40181;51.560;13.000;2023-05-24T08:14:33;101191.25;;;11.57;62.71
54270;BME280;40181;51.560;13.000;2023-05-24T08:17:02;101203.41;;;11.52;64.17
54270;BME280;40181;51.560;13.000;2023-05-24T08:19:31;101208.38;;;11.36;64.31
54270;BME280;40181;51.560;13.000;2023-05-24T08:22:00;101203.13;;;11.36;64.75
54270;BME280;40181;51.560;13.000;2023-05-24T08:24:31;101212.28;;;11.14;65.58
54270;BME280;40181;51.560;13.000;2023-05-24T08:27:00;101210.72;;;11.22;65.17
54270;BME280;40181;51.560;13.000;2023-05-24T08:29:29;101201.63;;;11.51;64.07
54270;BME280;40181;51.560;13.000;2023-05-24T08:32:01;101216.28;;;11.38;64.03
54270;BME280;40181;51.560;13.000;2023-05-24T08:34:33;101204.84;;;11.35;64.86
54270;BME280;40181;51.560;13.000;2023-05-24T08:37:04;101216.88;;;11.67;63.44
54270;BME280;40181;51.560;13.000;2023-05-24T08:39:34;101207.25;;;11.68;61.17
54270;BME280;40181;51.560;13.000;2023-05-24T08:42:04;101213.84;;;11.93;60.92
54270;BME280;40181;51.560;13.000;2023-05-24T08:44:40;101212.78;;;11.82;59.68
54270;BME280;40181;51.560;13.000;2023-05-24T08:47:15;101206.66;;;11.38;58.29
54270;BME280;40181;51.560;13.000;2023-05-24T08:49:44;101212.06;;;11.44;58.45
54270;BME280;40181;51.560;13.000;2023-05-24T08:52:15;101217.91;;;11.75;58.99
54270;BME280;40181;51.560;13.000;2023-05-24T08:54:45;101219.59;;;11.72;57.63
54270;BME280;40181;51.560;13.000;2023-05-24T08:57:18;101221.25;;;11.22;57.89
54270;BME280;40181;51.560;13.000;2023-05-24T08:59:50;101219.69;;;11.76;56.95
54270;BME280;40181;51.560;13.000;2023-05-24T09:02:20;101210.06;;;11.79;56.84
54270;BME280;40181;51.560;13.000;2023-05-24T09:04:51;101207.81;;;11.99;56.73
54270;BME280;40181;51.560;13.000;2023-05-24T09:07:21;101218.16;;;12.37;56.20
54270;BME280;40181;51.560;13.000;2023-05-24T09:09:56;101223.03;;;12.14;57.69
54270;BME280;40181;51.560;13.000;2023-05-24T09:12:30;101219.75;;;12.29;56.99
54270;BME280;40181;51.560;13.000;2023-05-24T09:15:04;101221.09;;;11.59;57.77
54270;BME280;40181;51.560;13.000;2023-05-24T09:17:35;101222.94;;;12.09;57.90
54270;BME280;40181;51.560;13.000;2023-05-24T09:20:06;101230.44;;;11.87;58.58
54270;BME280;40181;51.560;13.000;2023-05-24T09:22:37;101231.25;;;11.85;59.45
54270;BME280;40181;51.560;13.000;2023-05-24T09:25:12;101235.69;;;11.87;59.34
54270;BME280;40181;51.560;13.000;2023-05-24T09:27:42;101232.78;;;11.73;59.45
54270;BME280;40181;51.560;13.000;2023-05-24T09:30:19;101231.00;;;12.18;59.43
54270;BME280;40181;51.560;13.000;2023-05-24T09:32:56;101234.97;;;11.50;59.50
54270;BME280;40181;51.560;13.000;2023-05-24T09:35:26;101227.31;;;12.07;59.66
54270;BME280;40181;51.560;13.000;2023-05-24T09:37:56;101227.25;;;12.04;60.14
54270;BME280;40181;51.560;13.000;2023-05-24T09:40:27;101231.97;;;11.76;60.03
54270;BME280;40181;51.560;13.000;2023-05-24T09:43:04;101238.69;;;12.06;59.73
54270;BME280;40181;51.560;13.000;2023-05-24T09:45:40;101235.91;;;11.98;59.85
54270;BME280;40181;51.560;13.000;2023-05-24T09:48:11;101233.31;;;12.01;60.59
54270;BME280;40181;51.560;13.000;2023-05-24T09:50:41;101240.38;;;12.02;61.32
54270;BME280;40181;51.560;13.000;2023-05-24T09:53:17;101244.50;;;11.89;61.24
54270;BME280;40181;51.560;13.000;2023-05-24T09:55:48;101241.19;;;12.00;60.59
54270;BME280;40181;51.560;13.000;2023-05-24T09:58:18;101232.41;;;12.49;59.67
54270;BME280;40181;51.560;13.000;2023-05-24T10:01:02;101235.84;;;12.43;59.22
54270;BME280;40181;51.560;13.000;2023-05-24T10:03:33;101232.97;;;12.30;59.53
54270;BME280;40181;51.560;13.000;2023-05-24T10:06:03;101236.91;;;12.57;59.07
54270;BME280;40181;51.560;13.000;2023-05-24T10:08:34;101229.66;;;12.42;58.03
54270;BME280;40181;51.560;13.000;2023-05-24T10:11:03;101235.19;;;12.58;58.58
54270;BME280;40181;51.560;13.000;2023-05-24T10:13:34;101242.59;;;12.82;59.38
54270;BME280;40181;51.560;13.000;2023-05-24T10:16:06;101237.06;;;12.67;58.17
54270;BME280;40181;51.560;13.000;2023-05-24T10:18:36;101248.44;;;12.64;58.82
54270;BME280;40181;51.560;13.000;2023-05-24T10:21:06;101235.91;;;12.49;56.77
54270;BME280;40181;51.560;13.000;2023-05-24T10:23:36;101246.22;;;12.35;56.69
54270;BME280;40181;51.560;13.000;2023-05-24T10:26:06;101241.03;;;12.38;56.62
54270;BME280;40181;51.560;13.000;2023-05-24T10:28:40;101240.00;;;12.30;57.42
54270;BME280;40181;51.560;13.000;2023-05-24T10:31:18;101236.97;;;12.59;57.43
54270;BME280;40181;51.560;13.000;2023-05-24T10:33:51;101233.84;;;12.86;57.02
54270;BME280;40181;51.560;13.000;2023-05-24T10:36:22;101245.16;;;12.78;56.96
54270;BME280;40181;51.560;13.000;2023-05-24T10:38:52;101240.13;;;12.93;59.56
54270;BME280;40181;51.560;13.000;2023-05-24T10:41:24;101240.25;;;13.03;56.04
54270;BME280;40181;51.560;13.000;2023-05-24T10:43:56;101247.63;;;13.30;55.78
54270;BME280;40181;51.560;13.000;2023-05-24T10:46:29;101241.94;;;12.99;55.74
54270;BME280;40181;51.560;13.000;2023-05-24T10:48:59;101223.31;;;13.51;55.23
54270;BME280;40181;51.560;13.000;2023-05-24T10:51:34;101226.44;;;13.96;56.54
54270;BME280;40181;51.560;13.000;2023-05-24T10:54:16;101236.09;;;13.93;57.79
54270;BME280;40181;51.560;13.000;2023-05-24T10:56:46;101228.84;;;14.72;54.43
54270;BME280;40181;51.560;13.000;2023-05-24T10:59:27;101224.13;;;14.35;53.65
54270;BME280;40181;51.560;13.000;2023-05-24T11:02:05;101220.16;;;13.85;54.28
54270;BME280;40181;51.560;13.000;2023-05-24T11:04:39;101235.16;;;13.18;53.91
54270;BME280;40181;51.560;13.000;2023-05-24T11:07:12;101231.53;;;13.10;54.62
54270;BME280;40181;51.560;13.000;2023-05-24T11:09:46;101236.53;;;13.54;55.13
54270;BME280;40181;51.560;13.000;2023-05-24T11:12:21;101221.50;;;13.47;55.39
54270;BME280;40181;51.560;13.000;2023-05-24T11:14:51;101235.19;;;13.89;55.98
54270;BME280;40181;51.560;13.000;2023-05-24T11:17:23;101235.00;;;13.74;54.97
54270;BME280;40181;51.560;13.000;2023-05-24T11:19:53;101227.06;;;13.71;52.88
54270;BME280;40181;51.560;13.000;2023-05-24T11:22:24;101227.84;;;13.63;53.67
54270;BME280;40181;51.560;13.000;2023-05-24T11:24:53;101227.66;;;14.31;51.94
54270;BME280;40181;51.560;13.000;2023-05-24T11:27:27;101224.94;;;14.25;51.21
54270;BME280;40181;51.560;13.000;2023-05-24T11:29:59;101217.69;;;14.04;52.52
54270;BME280;40181;51.560;13.000;2023-05-24T11:32:32;101214.28;;;14.16;51.42
54270;BME280;40181;51.560;13.000;2023-05-24T11:35:05;101228.22;;;13.97;51.73
54270;BME280;40181;51.560;13.000;2023-05-24T11:37:36;101228.19;;;13.93;51.58
54270;BME280;40181;51.560;13.000;2023-05-24T11:40:07;101227.94;;;13.69;54.93
54270;BME280;40181;51.560;13.000;2023-05-24T11:42:37;101229.97;;;13.97;55.23
54270;BME280;40181;51.560;13.000;2023-05-24T11:45:08;101228.19;;;13.93;55.58
54270;BME280;40181;51.560;13.000;2023-05-24T11:47:40;101235.06;;;13.81;54.86
54270;BME280;40181;51.560;13.000;2023-05-24T11:50:14;101239.41;;;13.73;55.27
54270;BME280;40181;51.560;13.000;2023-05-24T11:52:43;101231.69;;;13.92;55.04
54270;BME280;40181;51.560;13.000;2023-05-24T11:55:12;101238.81;;;14.04;54.57
54270;BME280;40181;51.560;13.000;2023-05-24T11:57:46;101232.72;;;14.08;53.78
54270;BME280;40181;51.560;13.000;2023-05-24T12:00:25;101237.03;;;13.96;53.52
54270;BME280;40181;51.560;13.000;2023-05-24T12:02:58;101221.41;;;14.23;52.83
54270;BME280;40181;51.560;13.000;2023-05-24T12:05:31;101238.78;;;13.97;51.75
54270;BME280;40181;51.560;13.000;2023-05-24T12:08:02;101234.91;;;14.57;52.96
54270;BME280;40181;51.560;13.000;2023-05-24T12:10:33;101236.88;;;13.82;51.43
54270;BME280;40181;51.560;13.000;2023-05-24T12:13:03;101225.94;;;14.39;51.15
54270;BME280;40181;51.560;13.000;2023-05-24T12:15:32;101225.00;;;14.31;50.66
54270;BME280;40181;51.560;13.000;2023-05-24T12:18:04;101221.69;;;14.60;51.21
54270;BME280;40181;51.560;13.000;2023-05-24T12:20:45;101218.41;;;14.88;53.82
54270;BME280;40181;51.560;13.000;2023-05-24T12:23:18;101218.63;;;15.38;52.09
54270;BME280;40181;51.560;13.000;2023-05-24T12:25:48;101228.25;;;15.15;50.82
54270;BME280;40181;51.560;13.000;2023-05-24T12:28:18;101226.53;;;15.22;51.43
54270;BME280;40181;51.560;13.000;2023-05-24T12:30:49;101223.06;;;15.39;49.06
54270;BME280;40181;51.560;13.000;2023-05-24T12:33:20;101214.25;;;15.46;49.40
54270;BME280;40181;51.560;13.000;2023-05-24T12:35:51;101231.63;;;14.88;50.65
54270;BME280;40181;51.560;13.000;2023-05-24T12:38:22;101230.00;;;15.10;52.34
54270;BME280;40181;51.560;13.000;2023-05-24T12:40:52;101222.91;;;15.06;50.76
54270;BME280;40181;51.560;13.000;2023-05-24T12:43:22;101226.16;;;14.68;51.28
54270;BME280;40181;51.560;13.000;2023-05-24T12:45:51;101219.19;;;14.76;51.48
54270;BME280;40181;51.560;13.000;2023-05-24T12:48:23;101221.97;;;14.96;52.31
54270;BME280;40181;51.560;13.000;2023-05-24T12:50:52;101239.47;;;14.74;51.94
54270;BME280;40181;51.560;13.000;2023-05-24T12:53:21;101230.69;;;14.83;52.25
54270;BME280;40181;51.560;13.000;2023-05-24T12:55:51;101231.53;;;14.75;51.92
54270;BME280;40181;51.560;13.000;2023-05-24T12:58:21;101228.06;;;14.84;51.95
54270;BME280;40181;51.560;13.000;2023-05-24T13:00:50;101223.63;;;14.78;51.26
54270;BME280;40181;51.560;13.000;2023-05-24T13:03:23;101229.06;;;15.03;51.01
54270;BME280;40181;51.560;13.000;2023-05-24T13:05:52;101222.81;;;14.92;50.88